Time;durP1;ratioP1;P1;durP2;ratioP2;P2;SDS_P1;SDS_P2;PMS_P1;PMS_P2;Temp;Humidity;BMP_temperature;BMP_pressure;BME280_temperature;BME280_humidity;BME280_pressure;Samples;Min_cycle;Max_cycle;Signal;HPM_P1;HPM_P2
2023/02/03 00:01:33;;;;;;;;;;;9.10;92.20;;;;;;5094049;28;20054;-27
2023/02/03 00:03:59;;;;;;;;;;;9.10;92.20;;;;;;5093872;28;20006;-32
2023/02/03 00:06:24;;;;;;;;;;;9.10;92.20;;;;;;5094018;28;19919;-33
2023/02/03 00:08:58;;;;;;;;;;;9.10;92.20;;;;;;5094137;28;20007;-28
2023/02/03 00:11:23;;;;;;;;;;;9.10;92.20;;;;;;5093935;28;19912;-31
2023/02/03 00:13:49;;;;;;;;;;;9.10;92.10;;;;;;5093737;28;19918;-30
2023/02/03 00:16:14;;;;;;;;;;;9.10;92.10;;;;;;5093991;28;20004;-34
2023/02/03 00:18:40;;;;;;;;;;;9.10;92.10;;;;;;5093688;28;19912;-29
2023/02/03 00:21:05;;;;;;;;;;;9.10;92.00;;;;;;5094006;28;20373;-33
2023/02/03 00:23:31;;;;;;;;;;;9.10;92.00;;;;;;5092914;28;19920;-31
2023/02/03 00:25:57;;;;;;;;;;;9.10;92.00;;;;;;5093688;28;20343;-30
2023/02/03 00:28:27;;;;;;;;;;;9.10;92.00;;;;;;5093930;28;19943;-30
2023/02/03 00:30:52;;;;;;;;;;;9.10;92.00;;;;;;5093904;28;20382;-31
2023/02/03 00:33:18;;;;;;;;;;;9.10;92.00;;;;;;5093523;28;19958;-32
2023/02/03 00:35:43;;;;;;;;;;;9.10;92.00;;;;;;5093616;28;19912;-26
2023/02/03 00:38:09;;;;;;;;;;;9.10;91.90;;;;;;5093658;28;20312;-28
2023/02/03 00:40:34;;;;;;;;;;;9.10;91.90;;;;;;5093226;28;19916;-31
2023/02/03 00:43:00;;;;;;;;;;;9.10;91.70;;;;;;5093269;28;19965;-28
2023/02/03 00:45:25;;;;;;;;;;;9.20;91.80;;;;;;5093606;28;19912;-35
2023/02/03 00:47:51;;;;;;;;;;;9.20;91.70;;;;;;5093575;28;19912;-40
2023/02/03 00:50:17;;;;;;;;;;;9.20;91.70;;;;;;5091876;28;19957;-32
2023/02/03 00:52:42;;;;;;;;;;;9.20;91.70;;;;;;5093158;28;19916;-29
2023/02/03 00:55:08;;;;;;;;;;;9.20;91.60;;;;;;5093131;28;19912;-32
2023/02/03 00:57:33;;;;;;;;;;;9.20;91.60;;;;;;5092998;28;19974;-30
2023/02/03 00:59:59;;;;;;;;;;;9.20;91.60;;;;;;5092974;28;19912;-31
2023/02/03 01:02:24;;;;;;;;;;;9.20;91.60;;;;;;5093010;28;19942;-32
2023/02/03 01:04:50;;;;;;;;;;;9.20;91.60;;;;;;5093184;28;20363;-28
2023/02/03 01:07:15;;;;;;;;;;;9.20;91.60;;;;;;5092916;28;19919;-29
2023/02/03 01:09:41;;;;;;;;;;;9.30;91.50;;;;;;5093175;28;19919;-33
2023/02/03 01:12:06;;;;;;;;;;;9.20;91.50;;;;;;5092881;28;20418;-30
2023/02/03 01:14:32;;;;;;;;;;;9.20;91.40;;;;;;5093208;28;19919;-29
2023/02/03 01:16:58;;;;;;;;;;;9.20;91.40;;;;;;5092602;28;19916;-32
2023/02/03 01:19:24;;;;;;;;;;;9.30;91.50;;;;;;5093075;28;19964;-29
2023/02/03 01:21:50;;;;;;;;;;;9.30;91.40;;;;;;5092939;28;20006;-31
2023/02/03 01:24:15;;;;;;;;;;;9.30;91.40;;;;;;5092343;28;20387;-31
2023/02/03 01:26:41;;;;;;;;;;;9.30;91.50;;;;;;5092739;28;19912;-28
2023/02/03 01:29:07;;;;;;;;;;;9.30;91.40;;;;;;5092968;28;19912;-30
2023/02/03 01:31:34;;;;;;;;;;;9.30;91.40;;;;;;5092807;28;19912;-32
2023/02/03 01:33:59;;;;;;;;;;;9.30;91.40;;;;;;5091247;28;19912;-31
2023/02/03 01:36:25;;;;;;;;;;;9.30;91.40;;;;;;5091750;28;19912;-33
2023/02/03 01:38:51;;;;;;;;;;;9.30;91.30;;;;;;5092419;28;20014;-30
2023/02/03 01:41:18;;;;;;;;;;;9.30;91.30;;;;;;5092328;28;19955;-32
2023/02/03 01:43:45;;;;;;;;;;;9.30;91.30;;;;;;5092112;28;19931;-31
2023/02/03 01:46:20;;;;;;;;;;;9.30;91.20;;;;;;5092390;28;19919;-27
2023/02/03 01:48:45;;;;;;;;;;;9.30;91.20;;;;;;5092113;28;19912;-26
2023/02/03 01:51:11;;;;;;;;;;;9.30;91.20;;;;;;5092099;28;19918;-31
2023/02/03 01:53:38;;;;;;;;;;;9.30;91.10;;;;;;5092319;28;19912;-28
2023/02/03 01:56:04;;;;;;;;;;;9.30;91.10;;;;;;5092166;28;19912;-30
2023/02/03 01:58:31;;;;;;;;;;;9.30;91.10;;;;;;5091836;28;20372;-29
2023/02/03 02:00:57;;;;;;;;;;;9.30;91.10;;;;;;5091850;28;19912;-27
2023/02/03 02:03:25;;;;;;;;;;;9.30;91.10;;;;;;5091771;28;19916;-32
2023/02/03 02:05:56;;;;;;;;;;;9.30;91.10;;;;;;5091942;28;19912;-31
2023/02/03 02:08:22;;;;;;;;;;;9.30;91.10;;;;;;5091735;28;19919;-29
2023/02/03 02:10:48;;;;;;;;;;;9.30;91.00;;;;;;5091526;28;19945;-31
2023/02/03 02:13:14;;;;;;;;;;;9.30;91.00;;;;;;5091522;28;19962;-28
2023/02/03 02:15:58;;;;;;;;;;;9.30;90.90;;;;;;5091351;28;19920;-30
2023/02/03 02:18:24;;;;;;;;;;;9.30;90.90;;;;;;5091820;28;19919;-31
2023/02/03 02:20:57;;;;;;;;;;;9.30;91.00;;;;;;5091831;28;20288;-30
2023/02/03 02:23:41;;;;;;;;;;;9.30;90.90;;;;;;5091292;28;19920;-29
2023/02/03 02:26:10;;;;;;;;;;;9.20;90.90;;;;;;5091942;28;19981;-30
2023/02/03 02:28:51;;;;;;;;;;;9.20;90.90;;;;;;5090175;28;19912;-30
2023/02/03 02:31:16;;;;;;;;;;;9.20;91.00;;;;;;5091317;28;19977;-32
2023/02/03 02:33:57;;;;;;;;;;;9.20;91.00;;;;;;5091106;28;19946;-29
2023/02/03 02:36:31;;;;;;;;;;;9.20;91.00;;;;;;5091454;28;20303;-32
2023/02/03 02:39:04;;;;;;;;;;;9.20;90.90;;;;;;5089717;28;19912;-32
2023/02/03 02:41:29;;;;;;;;;;;9.20;90.90;;;;;;5091218;28;19935;-33
2023/02/03 02:44:07;;;;;;;;;;;9.20;90.80;;;;;;5089613;28;20303;-30
2023/02/03 02:46:36;;;;;;;;;;;9.30;90.80;;;;;;5092389;28;19912;-29
2023/02/03 02:49:02;;;;;;;;;;;9.20;90.90;;;;;;5095117;28;20015;-28
2023/02/03 02:51:28;;;;;;;;;;;9.30;90.90;;;;;;5095242;28;19916;-30
2023/02/03 02:53:56;;;;;;;;;;;9.30;90.80;;;;;;5095240;28;19923;-27
2023/02/03 02:56:22;;;;;;;;;;;9.30;90.70;;;;;;5095114;28;20329;-30
2023/02/03 02:58:49;;;;;;;;;;;9.30;90.70;;;;;;5094932;28;19920;-33
2023/02/03 03:01:15;;;;;;;;;;;9.30;90.70;;;;;;5095066;28;19918;-27
2023/02/03 03:03:43;;;;;;;;;;;9.30;90.70;;;;;;5094818;28;19920;-32
2023/02/03 03:06:21;;;;;;;;;;;9.30;90.60;;;;;;5095149;28;20014;-33
2023/02/03 03:08:46;;;;;;;;;;;9.30;90.50;;;;;;5094865;28;19951;-28
2023/02/03 03:11:12;;;;;;;;;;;9.40;90.50;;;;;;5095106;28;19958;-33
2023/02/03 03:13:39;;;;;;;;;;;9.30;90.50;;;;;;5094774;28;19976;-31
2023/02/03 03:16:06;;;;;;;;;;;9.30;90.40;;;;;;5094775;28;19912;-28
2023/02/03 03:18:42;;;;;;;;;;;9.30;90.40;;;;;;5095141;28;19912;-32
2023/02/03 03:21:09;;;;;;;;;;;9.30;90.30;;;;;;5094867;28;20090;-28
2023/02/03 03:23:38;;;;;;;;;;;9.40;90.20;;;;;;5094645;28;19920;-29
2023/02/03 03:26:06;;;;;;;;;;;9.30;90.30;;;;;;5094574;28;20399;-27
2023/02/03 03:28:36;;;;;;;;;;;9.40;90.20;;;;;;5094685;28;20061;-34
2023/02/03 03:31:01;;;;;;;;;;;9.40;90.20;;;;;;5094531;28;19912;-40
2023/02/03 03:33:27;;;;;;;;;;;9.40;90.20;;;;;;5094666;28;19927;-29
2023/02/03 03:36:02;;;;;;;;;;;9.30;90.20;;;;;;5094816;28;19919;-33
2023/02/03 03:38:32;;;;;;;;;;;9.40;90.30;;;;;;5094767;28;19919;-30
2023/02/03 03:41:02;;;;;;;;;;;9.40;90.20;;;;;;5094823;28;19955;-29
2023/02/03 03:43:29;;;;;;;;;;;9.30;90.10;;;;;;5094321;28;19916;-37
2023/02/03 03:45:59;;;;;;;;;;;9.40;90.10;;;;;;5094150;28;19912;-32
2023/02/03 03:48:27;;;;;;;;;;;9.40;90.20;;;;;;5094074;28;19971;-27
2023/02/03 03:51:00;;;;;;;;;;;9.40;90.10;;;;;;5094372;28;19920;-35
2023/02/03 03:53:27;;;;;;;;;;;9.40;90.10;;;;;;5094372;28;19912;-31
2023/02/03 03:55:53;;;;;;;;;;;9.40;90.10;;;;;;5094048;28;19958;-29
2023/02/03 03:58:21;;;;;;;;;;;9.40;90.00;;;;;;5093509;28;19912;-29
2023/02/03 04:00:47;;;;;;;;;;;9.40;90.10;;;;;;5093884;28;19961;-30
2023/02/03 04:03:17;;;;;;;;;;;9.40;90.10;;;;;;5094161;28;20299;-26
2023/02/03 04:05:43;;;;;;;;;;;9.40;90.10;;;;;;5092403;28;19912;-31
2023/02/03 04:08:09;;;;;;;;;;;9.50;90.00;;;;;;5094014;28;19912;-31
2023/02/03 04:10:38;;;;;;;;;;;9.40;90.10;;;;;;5094189;28;19923;-31
2023/02/03 04:13:04;;;;;;;;;;;9.50;90.00;;;;;;5093667;28;19912;-30
2023/02/03 04:15:30;;;;;;;;;;;9.50;90.10;;;;;;5093819;28;19912;-32
2023/02/03 04:17:56;;;;;;;;;;;9.50;90.10;;;;;;5092540;28;19999;-35
2023/02/03 04:20:23;;;;;;;;;;;9.50;90.00;;;;;;5093861;28;19951;-34
2023/02/03 04:22:48;;;;;;;;;;;9.50;90.00;;;;;;5093899;28;20375;-29
2023/02/03 04:25:14;;;;;;;;;;;9.50;90.00;;;;;;5093549;28;19973;-31
2023/02/03 04:27:39;;;;;;;;;;;9.50;90.00;;;;;;5093626;28;20419;-30
2023/02/03 04:30:05;;;;;;;;;;;9.50;90.00;;;;;;5093728;28;20013;-31
2023/02/03 04:32:31;;;;;;;;;;;9.50;90.00;;;;;;5093671;28;19912;-33
2023/02/03 04:34:57;;;;;;;;;;;9.50;90.00;;;;;;5093562;28;19912;-42
2023/02/03 04:37:22;;;;;;;;;;;9.50;90.00;;;;;;5093499;28;19969;-30
2023/02/03 04:39:50;;;;;;;;;;;9.50;89.80;;;;;;5093386;28;19916;-31
2023/02/03 04:42:15;;;;;;;;;;;9.50;89.90;;;;;;5093602;28;19912;-28
2023/02/03 04:44:41;;;;;;;;;;;9.50;89.70;;;;;;5093303;28;20057;-30
2023/02/03 04:47:06;;;;;;;;;;;9.60;89.60;;;;;;5093727;28;20279;-29
2023/02/03 04:49:32;;;;;;;;;;;9.50;89.30;;;;;;5093372;28;19912;-32
2023/02/03 04:51:57;;;;;;;;;;;9.60;89.60;;;;;;5092090;28;19916;-33
2023/02/03 04:54:23;;;;;;;;;;;9.50;89.50;;;;;;5093086;28;19989;-33
2023/02/03 04:56:48;;;;;;;;;;;9.60;89.50;;;;;;5093228;28;20380;-29
2023/02/03 04:59:14;;;;;;;;;;;9.50;89.40;;;;;;5093164;28;19916;-29
2023/02/03 05:01:39;;;;;;;;;;;9.60;89.30;;;;;;5093185;28;20382;-32
2023/02/03 05:04:05;;;;;;;;;;;9.60;89.40;;;;;;5091708;28;20011;-32
2023/02/03 05:06:33;;;;;;;;;;;9.60;89.40;;;;;;5092844;28;20432;-29
2023/02/03 05:08:58;;;;;;;;;;;9.60;89.40;;;;;;5092877;28;19918;-29
2023/02/03 05:11:24;;;;;;;;;;;9.60;89.30;;;;;;5091949;28;20010;-33
2023/02/03 05:13:50;;;;;;;;;;;9.60;89.30;;;;;;5092777;28;19961;-34
2023/02/03 05:16:15;;;;;;;;;;;9.60;89.30;;;;;;5093116;28;19912;-31
2023/02/03 05:18:41;;;;;;;;;;;9.60;89.30;;;;;;5092722;28;20329;-33
2023/02/03 05:21:07;;;;;;;;;;;9.60;89.10;;;;;;5091392;28;19916;-37
2023/02/03 05:23:32;;;;;;;;;;;9.60;89.10;;;;;;5091054;28;19969;-30
2023/02/03 05:25:58;;;;;;;;;;;9.60;89.20;;;;;;5092555;28;20006;-28
2023/02/03 05:28:24;;;;;;;;;;;9.60;89.10;;;;;;5092590;28;20330;-30
2023/02/03 05:30:49;;;;;;;;;;;9.60;89.20;;;;;;5092548;28;20004;-31
2023/02/03 05:33:14;;;;;;;;;;;9.60;89.10;;;;;;5092494;28;19914;-30
2023/02/03 05:35:40;;;;;;;;;;;9.60;89.20;;;;;;5092453;28;19966;-32
2023/02/03 05:38:06;;;;;;;;;;;9.70;89.10;;;;;;5092463;28;19958;-29
2023/02/03 05:43:15;;;;;;;;;;;9.70;89.10;;;;;;5092362;28;20010;-35
2023/02/03 05:45:41;;;;;;;;;;;9.70;88.90;;;;;;5090631;28;19998;-30
2023/02/03 05:48:06;;;;;;;;;;;9.70;88.90;;;;;;5092239;28;20415;-28
2023/02/03 05:50:32;;;;;;;;;;;9.70;89.00;;;;;;5092127;28;19912;-35
2023/02/03 05:52:59;;;;;;;;;;;9.60;88.70;;;;;;5092017;28;19916;-37
2023/02/03 05:55:24;;;;;;;;;;;9.70;89.00;;;;;;5092034;28;19973;-30
2023/02/03 05:57:50;;;;;;;;;;;9.70;89.00;;;;;;5091985;28;19916;-31
2023/02/03 06:00:16;;;;;;;;;;;9.70;89.00;;;;;;5092047;28;19981;-34
2023/02/03 06:02:41;;;;;;;;;;;9.70;89.10;;;;;;5091890;28;19988;-30
2023/02/03 06:05:07;;;;;;;;;;;9.70;88.90;;;;;;5091892;28;19927;-33
2023/02/03 06:07:32;;;;;;;;;;;9.70;89.00;;;;;;5091885;28;19919;-32
2023/02/03 06:09:58;;;;;;;;;;;9.70;89.00;;;;;;5092131;28;19912;-32
2023/02/03 06:12:23;;;;;;;;;;;9.60;88.90;;;;;;5091884;28;19908;-28
2023/02/03 06:14:49;;;;;;;;;;;9.60;88.90;;;;;;5091778;28;19914;-29
2023/02/03 06:17:15;;;;;;;;;;;9.60;88.90;;;;;;5092088;28;20249;-29
2023/02/03 06:19:40;;;;;;;;;;;9.60;88.90;;;;;;5091745;28;19908;-29
2023/02/03 06:22:05;;;;;;;;;;;9.70;89.00;;;;;;5091500;28;19915;-28
2023/02/03 06:24:31;;;;;;;;;;;9.60;88.70;;;;;;5091376;28;20010;-29
2023/02/03 06:26:56;;;;;;;;;;;9.60;88.60;;;;;;5091681;28;19931;-31
2023/02/03 06:29:22;;;;;;;;;;;9.60;88.90;;;;;;5091937;28;20252;-28
2023/02/03 06:31:47;;;;;;;;;;;9.60;88.90;;;;;;5091938;28;19955;-32
2023/02/03 06:34:13;;;;;;;;;;;9.60;89.00;;;;;;5091716;28;19915;-27
2023/02/03 06:36:38;;;;;;;;;;;9.60;89.10;;;;;;5091592;28;19908;-28
2023/02/03 06:39:04;;;;;;;;;;;9.60;88.90;;;;;;5091527;28;19936;-27
2023/02/03 06:41:30;;;;;;;;;;;9.60;88.90;;;;;;5091658;28;19969;-32
2023/02/03 06:43:55;;;;;;;;;;;9.60;89.00;;;;;;5091422;28;19929;-31
2023/02/03 06:46:21;;;;;;;;;;;9.60;89.10;;;;;;5091784;28;19908;-29
2023/02/03 06:48:46;;;;;;;;;;;9.60;89.10;;;;;;5091515;28;19999;-28
2023/02/03 06:51:12;;;;;;;;;;;9.60;89.10;;;;;;5091484;28;20393;-33
2023/02/03 06:53:37;;;;;;;;;;;9.60;89.10;;;;;;5091516;28;19912;-31
2023/02/03 06:56:02;;;;;;;;;;;9.60;89.00;;;;;;5091733;28;19908;-32
2023/02/03 06:58:28;;;;;;;;;;;9.60;89.10;;;;;;5091730;28;19908;-30
2023/02/03 07:00:56;;;;;;;;;;;9.60;89.20;;;;;;5091385;28;20374;-34
2023/02/03 07:03:22;;;;;;;;;;;9.60;89.20;;;;;;5089971;28;19912;-32
2023/02/03 07:05:47;;;;;;;;;;;9.60;89.30;;;;;;5091278;28;19983;-32
2023/02/03 07:08:13;;;;;;;;;;;9.60;89.30;;;;;;5091247;28;19908;-29
2023/02/03 07:10:38;;;;;;;;;;;9.60;89.20;;;;;;5091221;28;19930;-26
2023/02/03 07:13:05;;;;;;;;;;;9.60;89.30;;;;;;5091078;28;19909;-30
2023/02/03 07:15:30;;;;;;;;;;;9.60;89.30;;;;;;5091214;28;19919;-31
2023/02/03 07:17:56;;;;;;;;;;;9.60;89.30;;;;;;5091263;28;19976;-28
2023/02/03 07:20:22;;;;;;;;;;;9.60;89.30;;;;;;5091196;28;19951;-31
2023/02/03 07:22:52;;;;;;;;;;;9.60;89.30;;;;;;5091400;28;19912;-27
2023/02/03 07:25:17;;;;;;;;;;;9.60;89.20;;;;;;5090899;28;20465;-30
2023/02/03 07:27:43;;;;;;;;;;;9.60;89.30;;;;;;5090987;28;19908;-31
2023/02/03 07:30:08;;;;;;;;;;;9.60;89.40;;;;;;5091031;28;20388;-30
2023/02/03 07:32:34;;;;;;;;;;;9.60;89.40;;;;;;5091042;28;19908;-31
2023/02/03 07:35:00;;;;;;;;;;;9.60;89.30;;;;;;5094342;28;19908;-28
2023/02/03 07:37:25;;;;;;;;;;;9.60;89.50;;;;;;5095025;28;20382;-28
2023/02/03 07:39:51;;;;;;;;;;;9.60;89.30;;;;;;5094591;28;20318;-33
2023/02/03 07:42:16;;;;;;;;;;;9.60;89.20;;;;;;5094677;28;19916;-35
2023/02/03 07:44:42;;;;;;;;;;;9.60;89.30;;;;;;5094572;28;19912;-32
2023/02/03 07:47:07;;;;;;;;;;;9.60;89.20;;;;;;5094890;28;19951;-31
2023/02/03 07:49:33;;;;;;;;;;;9.60;89.30;;;;;;5094433;28;19912;-33
2023/02/03 07:51:58;;;;;;;;;;;9.60;89.40;;;;;;5094439;28;19908;-28
2023/02/03 07:54:24;;;;;;;;;;;9.60;89.30;;;;;;5094151;28;19915;-32
2023/02/03 07:56:49;;;;;;;;;;;9.60;89.30;;;;;;5094265;28;19909;-31
2023/02/03 07:59:15;;;;;;;;;;;9.60;89.40;;;;;;5094212;28;19908;-35
2023/02/03 08:01:41;;;;;;;;;;;9.70;89.50;;;;;;5094068;28;19908;-29
2023/02/03 08:04:07;;;;;;;;;;;9.70;89.40;;;;;;5093862;28;20384;-27
2023/02/03 08:06:33;;;;;;;;;;;9.70;89.10;;;;;;5093788;28;20053;-35
2023/02/03 08:08:58;;;;;;;;;;;9.70;89.30;;;;;;5093774;28;19954;-29
2023/02/03 08:11:24;;;;;;;;;;;9.70;89.20;;;;;;5093868;28;19908;-33
2023/02/03 08:13:49;;;;;;;;;;;9.70;89.20;;;;;;5093865;28;19982;-28
2023/02/03 08:16:15;;;;;;;;;;;9.70;89.10;;;;;;5093765;28;20002;-31
2023/02/03 08:18:40;;;;;;;;;;;9.70;89.20;;;;;;5093847;28;19908;-29
2023/02/03 08:21:06;;;;;;;;;;;9.80;89.20;;;;;;5093825;28;20287;-35
2023/02/03 08:23:31;;;;;;;;;;;9.80;89.10;;;;;;5093560;28;19920;-27
2023/02/03 08:25:57;;;;;;;;;;;9.80;89.00;;;;;;5093722;28;19928;-29
2023/02/03 08:28:22;;;;;;;;;;;9.80;88.90;;;;;;5093841;28;19908;-33
2023/02/03 08:30:48;;;;;;;;;;;9.80;88.80;;;;;;5093713;28;20370;-33
2023/02/03 08:33:13;;;;;;;;;;;9.80;88.90;;;;;;5093338;28;19915;-30
2023/02/03 08:35:39;;;;;;;;;;;9.90;89.00;;;;;;5093151;28;20340;-28
2023/02/03 08:38:05;;;;;;;;;;;9.90;89.00;;;;;;5093507;28;19998;-38
2023/02/03 08:40:30;;;;;;;;;;;9.90;88.90;;;;;;5093441;28;20319;-33
2023/02/03 08:42:55;;;;;;;;;;;9.90;88.90;;;;;;5093596;28;19908;-29
2023/02/03 08:45:21;;;;;;;;;;;10.00;88.90;;;;;;5092834;28;20012;-30
2023/02/03 08:47:46;;;;;;;;;;;10.00;88.90;;;;;;5093068;28;19908;-26
2023/02/03 08:50:12;;;;;;;;;;;10.00;88.70;;;;;;5092938;28;19944;-29
2023/02/03 08:52:38;;;;;;;;;;;10.00;88.50;;;;;;5093139;28;20313;-28
2023/02/03 08:55:04;;;;;;;;;;;10.00;88.50;;;;;;5093113;28;19908;-30
2023/02/03 08:57:33;;;;;;;;;;;10.00;88.30;;;;;;5093336;28;19935;-35
2023/02/03 08:59:58;;;;;;;;;;;10.10;88.40;;;;;;5092964;28;19908;-28
2023/02/03 09:02:24;;;;;;;;;;;10.00;88.30;;;;;;5093138;28;19915;-30
2023/02/03 09:04:50;;;;;;;;;;;10.10;88.40;;;;;;5092732;28;19942;-31
2023/02/03 09:07:16;;;;;;;;;;;10.10;88.30;;;;;;5092786;28;19908;-29
2023/02/03 09:09:41;;;;;;;;;;;10.10;88.40;;;;;;5092804;28;20288;-27
2023/02/03 09:12:07;;;;;;;;;;;10.20;88.20;;;;;;5092838;28;19912;-29
2023/02/03 09:14:33;;;;;;;;;;;10.10;88.20;;;;;;5093041;28;20364;-32
2023/02/03 09:16:59;;;;;;;;;;;10.20;88.10;;;;;;5093080;28;19909;-30
2023/02/03 09:19:25;;;;;;;;;;;10.20;88.10;;;;;;5092922;28;19982;-32
2023/02/03 09:21:50;;;;;;;;;;;10.20;88.10;;;;;;5092926;28;19916;-27
2023/02/03 09:24:16;;;;;;;;;;;10.30;87.90;;;;;;5092556;28;19920;-27
2023/02/03 09:26:42;;;;;;;;;;;10.30;88.00;;;;;;5092737;28;19914;-33
2023/02/03 09:29:08;;;;;;;;;;;10.30;88.40;;;;;;5092491;28;19995;-29
2023/02/03 09:31:33;;;;;;;;;;;10.30;87.80;;;;;;5092496;28;19978;-27
2023/02/03 09:33:59;;;;;;;;;;;10.30;87.70;;;;;;5092374;28;19915;-38
2023/02/03 09:36:25;;;;;;;;;;;10.40;87.60;;;;;;5092798;28;19908;-32
2023/02/03 09:38:50;;;;;;;;;;;10.40;87.50;;;;;;5091010;28;20345;-28
2023/02/03 09:41:27;;;;;;;;;;;10.40;87.70;;;;;;5092161;28;19915;-31
2023/02/03 09:44:17;;;;;;;;;;;10.50;87.70;;;;;;5092179;28;19920;-28
2023/02/03 09:46:59;;;;;;;;;;;10.50;87.70;;;;;;5072294;28;19908;-27
2023/02/03 09:49:35;;;;;;;;;;;10.50;87.30;;;;;;5091879;28;19908;-30
2023/02/03 09:52:18;;;;;;;;;;;10.50;87.40;;;;;;5091779;28;20342;-29
2023/02/03 09:54:51;;;;;;;;;;;10.60;87.40;;;;;;5091803;28;19914;-38
2023/02/03 09:57:17;;;;;;;;;;;10.60;87.20;;;;;;5091545;28;20283;-33
2023/02/03 09:59:42;;;;;;;;;;;10.60;86.70;;;;;;5092045;28;19914;-30
2023/02/03 10:02:20;;;;;;;;;;;10.60;86.90;;;;;;5091980;28;19952;-32
2023/02/03 10:04:48;;;;;;;;;;;10.60;86.70;;;;;;5091847;28;20283;-34
2023/02/03 10:07:24;;;;;;;;;;;10.70;86.90;;;;;;5091523;28;19908;-33
2023/02/03 10:10:15;;;;;;;;;;;10.70;86.70;;;;;;5092006;28;19908;-33
2023/02/03 10:12:40;;;;;;;;;;;10.70;86.50;;;;;;5091744;28;20278;-32
2023/02/03 10:15:19;;;;;;;;;;;10.70;86.60;;;;;;5091519;28;19951;-30
2023/02/03 10:17:52;;;;;;;;;;;10.70;86.50;;;;;;5091616;28;20002;-33
2023/02/03 10:20:23;;;;;;;;;;;10.80;86.60;;;;;;5091203;28;20270;-30
2023/02/03 10:22:54;;;;;;;;;;;10.80;86.60;;;;;;5091759;28;19959;-31
2023/02/03 10:25:23;;;;;;;;;;;10.80;86.60;;;;;;5091251;28;19920;-32
2023/02/03 10:27:50;;;;;;;;;;;10.80;86.50;;;;;;5091326;28;19915;-32
2023/02/03 10:30:20;;;;;;;;;;;10.80;86.40;;;;;;5091202;28;19915;-29
2023/02/03 10:32:48;;;;;;;;;;;10.80;86.00;;;;;;5091647;28;20015;-28
2023/02/03 10:35:14;;;;;;;;;;;10.80;86.10;;;;;;5091521;28;20312;-31
2023/02/03 10:37:49;;;;;;;;;;;10.80;85.90;;;;;;5091578;28;20003;-30
2023/02/03 10:40:15;;;;;;;;;;;10.90;86.10;;;;;;5091343;28;20434;-32
2023/02/03 10:45:26;;;;;;;;;;;10.90;86.10;;;;;;5091315;28;20334;-28
2023/02/03 10:47:53;;;;;;;;;;;10.90;85.90;;;;;;5091546;28;19908;-32
2023/02/03 10:50:20;;;;;;;;;;;10.90;85.40;;;;;;5091049;28;19908;-35
2023/02/03 10:52:46;;;;;;;;;;;10.90;85.70;;;;;;5091313;28;19908;-30
2023/02/03 10:55:24;;;;;;;;;;;10.90;85.60;;;;;;5091707;28;19999;-35
2023/02/03 10:57:49;;;;;;;;;;;10.90;85.70;;;;;;5091143;28;19947;-34
2023/02/03 11:00:15;;;;;;;;;;;10.90;85.90;;;;;;5089898;28;19958;-35
2023/02/03 11:02:41;;;;;;;;;;;10.90;85.80;;;;;;5091371;28;19908;-34
2023/02/03 11:05:15;;;;;;;;;;;10.90;85.50;;;;;;5090871;28;19922;-26
2023/02/03 11:07:41;;;;;;;;;;;10.90;85.80;;;;;;5091660;28;19915;-30
2023/02/03 11:10:25;;;;;;;;;;;11.00;85.70;;;;;;5095116;28;20387;-31
2023/02/03 11:12:51;;;;;;;;;;;11.00;85.60;;;;;;5095151;28;19908;-30
2023/02/03 11:15:16;;;;;;;;;;;11.00;85.60;;;;;;5095405;28;19930;-30
2023/02/03 11:17:42;;;;;;;;;;;11.00;85.60;;;;;;5095100;28;20367;-31
2023/02/03 11:20:15;;;;;;;;;;;11.00;85.50;;;;;;5094973;28;19912;-32
2023/02/03 11:22:42;;;;;;;;;;;11.00;85.50;;;;;;5095340;28;19912;-32
2023/02/03 11:25:19;;;;;;;;;;;11.00;85.30;;;;;;5094734;28;20113;-30
2023/02/03 11:27:45;;;;;;;;;;;11.00;85.30;;;;;;5094907;28;20260;-30
2023/02/03 11:30:13;;;;;;;;;;;11.00;85.40;;;;;;5094765;28;19954;-35
2023/02/03 11:32:40;;;;;;;;;;;11.00;85.30;;;;;;5094568;28;19908;-33
2023/02/03 11:35:12;;;;;;;;;;;11.10;85.10;;;;;;5094789;28;19954;-31
2023/02/03 11:37:38;;;;;;;;;;;11.10;85.00;;;;;;5093128;28;19930;-30
2023/02/03 11:40:07;;;;;;;;;;;11.10;85.10;;;;;;5094772;28;19915;-32
2023/02/03 11:42:34;;;;;;;;;;;11.10;84.80;;;;;;5094606;28;20289;-29
2023/02/03 11:45:12;;;;;;;;;;;11.10;84.80;;;;;;5094312;28;19919;-35
2023/02/03 11:47:42;;;;;;;;;;;11.20;85.00;;;;;;5094264;28;19917;-32
2023/02/03 11:50:13;;;;;;;;;;;11.20;84.80;;;;;;5094390;28;19912;-31
2023/02/03 11:52:45;;;;;;;;;;;11.30;85.10;;;;;;5092785;28;19908;-31
2023/02/03 11:55:16;;;;;;;;;;;11.30;85.00;;;;;;5094226;28;20304;-29
2023/02/03 11:57:56;;;;;;;;;;;11.30;84.50;;;;;;5094295;28;19909;-35
2023/02/03 12:00:36;;;;;;;;;;;11.30;84.30;;;;;;5094602;28;20374;-32
2023/02/03 12:03:20;;;;;;;;;;;11.30;84.60;;;;;;5094522;28;19909;-31
2023/02/03 12:05:52;;;;;;;;;;;11.30;84.40;;;;;;5094189;28;20332;-34
2023/02/03 12:08:32;;;;;;;;;;;11.30;84.50;;;;;;5094150;28;19932;-28
2023/02/03 12:10:58;;;;;;;;;;;11.30;84.30;;;;;;5092528;28;19912;-30
2023/02/03 12:13:23;;;;;;;;;;;11.30;84.50;;;;;;5094443;28;20415;-35
2023/02/03 12:16:12;;;;;;;;;;;11.30;84.50;;;;;;5094402;28;19908;-27
2023/02/03 12:18:41;;;;;;;;;;;11.30;84.30;;;;;;5093565;28;19961;-29
2023/02/03 12:21:12;;;;;;;;;;;11.30;84.10;;;;;;5093777;28;19908;-33
2023/02/03 12:23:52;;;;;;;;;;;11.30;84.20;;;;;;5093567;28;20003;-34
2023/02/03 12:26:23;;;;;;;;;;;11.30;84.50;;;;;;5093474;28;19912;-28
2023/02/03 12:29:07;;;;;;;;;;;11.30;84.50;;;;;;5093877;28;20367;-29
2023/02/03 12:31:38;;;;;;;;;;;11.30;84.60;;;;;;5093684;28;19916;-30
2023/02/03 12:34:04;;;;;;;;;;;11.20;85.10;;;;;;5093938;28;20007;-31
2023/02/03 12:36:34;;;;;;;;;;;11.20;85.80;;;;;;5093718;28;19908;-28
2023/02/03 12:39:05;;;;;;;;;;;11.10;86.10;;;;;;5093610;28;19908;-29
2023/02/03 12:41:35;;;;;;;;;;;11.00;86.70;;;;;;5093346;28;19915;-31
2023/02/03 12:44:06;;;;;;;;;;;10.90;87.30;;;;;;5093774;28;19912;-30
2023/02/03 12:46:36;;;;;;;;;;;10.80;88.10;;;;;;5093492;28;19961;-40
2023/02/03 12:49:04;;;;;;;;;;;10.70;88.40;;;;;;5093577;28;19908;-30
2023/02/03 12:51:33;;;;;;;;;;;10.70;89.40;;;;;;5093465;28;19908;-30
2023/02/03 12:54:07;;;;;;;;;;;10.60;89.70;;;;;;5093726;28;19908;-38
2023/02/03 12:56:38;;;;;;;;;;;10.40;89.60;;;;;;5093567;28;19908;-29
2023/02/03 12:59:09;;;;;;;;;;;10.20;90.00;;;;;;5093638;28;19908;-27
2023/02/03 13:01:41;;;;;;;;;;;10.10;90.20;;;;;;5092932;28;20358;-30
2023/02/03 13:04:09;;;;;;;;;;;10.00;90.20;;;;;;5092788;28;19918;-31
2023/02/03 13:06:47;;;;;;;;;;;9.90;90.30;;;;;;5092975;28;19966;-31
2023/02/03 13:09:18;;;;;;;;;;;9.90;90.40;;;;;;5092974;28;20376;-29
2023/02/03 13:11:50;;;;;;;;;;;9.90;90.40;;;;;;5093240;28;19985;-31
2023/02/03 13:14:18;;;;;;;;;;;9.80;90.50;;;;;;5092951;28;19908;-35
2023/02/03 13:16:46;;;;;;;;;;;9.80;90.60;;;;;;5093058;28;19916;-30
2023/02/03 13:19:23;;;;;;;;;;;9.80;90.60;;;;;;5092804;28;19923;-32
2023/02/03 13:21:49;;;;;;;;;;;9.80;90.70;;;;;;5092736;28;20011;-30
2023/02/03 13:24:14;;;;;;;;;;;9.80;90.80;;;;;;5092563;28;20010;-28
2023/02/03 13:26:49;;;;;;;;;;;9.90;90.70;;;;;;5093095;28;20343;-29
2023/02/03 13:29:33;;;;;;;;;;;9.90;90.90;;;;;;5092392;28;19908;-30
2023/02/03 13:32:19;;;;;;;;;;;9.90;90.80;;;;;;5090993;28;21441;-29
2023/02/03 13:35:00;;;;;;;;;;;9.90;90.80;;;;;;5092803;28;19908;-33
2023/02/03 13:37:36;;;;;;;;;;;9.90;90.70;;;;;;5092603;28;19923;-27
2023/02/03 13:40:13;;;;;;;;;;;9.90;90.70;;;;;;5092557;28;19999;-33
2023/02/03 13:42:57;;;;;;;;;;;9.90;90.70;;;;;;5092333;28;20279;-28
2023/02/03 13:45:27;;;;;;;;;;;10.00;90.60;;;;;;5092308;28;20364;-27
2023/02/03 13:47:58;;;;;;;;;;;10.00;90.60;;;;;;5092365;28;20328;-31
2023/02/03 13:50:28;;;;;;;;;;;10.00;90.60;;;;;;5092260;28;19908;-29
2023/02/03 13:52:56;;;;;;;;;;;10.00;90.40;;;;;;5092341;28;20303;-28
2023/02/03 13:55:24;;;;;;;;;;;10.00;90.40;;;;;;5092175;28;20383;-28
2023/02/03 13:57:50;;;;;;;;;;;10.00;90.30;;;;;;5091960;28;19914;-30
2023/02/03 14:00:34;;;;;;;;;;;10.00;90.30;;;;;;5092287;28;19908;-27
2023/02/03 14:03:00;;;;;;;;;;;10.00;90.30;;;;;;5091929;28;19908;-33
2023/02/03 14:05:40;;;;;;;;;;;10.10;90.20;;;;;;5091920;28;19935;-29
2023/02/03 14:08:28;;;;;;;;;;;10.10;90.00;;;;;;5091712;28;19916;-27
2023/02/03 14:11:13;;;;;;;;;;;10.10;90.30;;;;;;5086114;28;19908;-31
2023/02/03 14:13:38;;;;;;;;;;;10.10;89.80;;;;;;5092025;28;20383;-28
2023/02/03 14:16:12;;;;;;;;;;;10.20;89.60;;;;;;5091742;28;19912;-32
2023/02/03 14:18:43;;;;;;;;;;;10.10;89.20;;;;;;5091778;28;20436;-34
2023/02/03 14:21:11;;;;;;;;;;;10.10;89.20;;;;;;5091844;28;19965;-32
2023/02/03 14:23:40;;;;;;;;;;;10.10;89.20;;;;;;5091743;28;19924;-30
2023/02/03 14:26:13;;;;;;;;;;;10.10;89.00;;;;;;5091705;28;19991;-31
2023/02/03 14:28:41;;;;;;;;;;;10.10;88.50;;;;;;5091475;28;20386;-31
2023/02/03 14:31:10;;;;;;;;;;;10.10;88.30;;;;;;5091795;28;20160;-30
2023/02/03 14:33:45;;;;;;;;;;;10.10;88.30;;;;;;5091120;28;19912;-31
2023/02/03 14:36:24;;;;;;;;;;;10.10;88.50;;;;;;5091396;28;19959;-30
2023/02/03 14:38:50;;;;;;;;;;;10.10;88.10;;;;;;5091333;28;19912;-29